createdAt,value
2022-08-10T00:01:53.080Z,92.70
2022-08-10T00:04:24.594Z,92.80
2022-08-10T00:06:55.317Z,92.90
2022-08-10T00:09:23.215Z,93.10
2022-08-10T00:11:49.879Z,93.20
2022-08-10T00:14:16.958Z,93.60
2022-08-10T00:16:43.647Z,93.70
2022-08-10T00:19:10.412Z,94.00
2022-08-10T00:21:37.620Z,94.10
2022-08-10T00:24:04.466Z,94.30
2022-08-10T00:27:52.967Z,94.40
2022-08-10T00:29:17.926Z,94.50
2022-08-10T00:31:58.114Z,94.50
2022-08-10T00:34:27.540Z,94.70
2022-08-10T00:36:54.536Z,94.80
2022-08-10T00:39:22.511Z,95.00
2022-08-10T00:42:06.436Z,95.20
2022-08-10T00:44:38.829Z,95.40
2022-08-10T00:47:06.733Z,95.50
2022-08-10T00:49:33.666Z,95.60
2022-08-10T00:52:00.636Z,95.60
2022-08-10T00:54:27.927Z,95.70
2022-08-10T00:57:16.584Z,95.80
2022-08-10T00:59:57.975Z,95.80
2022-08-10T01:02:28.205Z,95.90
2022-08-10T01:05:00.081Z,96.10
2022-08-10T01:07:53.254Z,96.30
2022-08-10T01:10:31.668Z,96.50
2022-08-10T01:13:06.507Z,96.60
2022-08-10T01:15:52.897Z,96.90
2022-08-10T01:18:40.103Z,97.10
2022-08-10T01:21:28.212Z,97.20
2022-08-10T01:24:32.280Z,97.40
2022-08-10T01:27:28.068Z,97.60
2022-08-10T01:30:06.884Z,98.00
2022-08-10T01:32:42.057Z,98.10
2022-08-10T01:35:18.267Z,98.30
2022-08-10T01:37:52.548Z,98.40
2022-08-10T01:40:25.244Z,98.50
2022-08-10T01:42:54.372Z,98.70
2022-08-10T01:45:24.293Z,99.30
2022-08-10T01:47:53.798Z,99.50
2022-08-10T01:50:26.239Z,99.80
2022-08-10T01:53:00.732Z,99.90
2022-08-10T01:55:28.804Z,99.90
2022-08-10T01:57:56.588Z,99.90
2022-08-10T02:00:24.823Z,99.90
2022-08-10T02:02:53.594Z,99.90
2022-08-10T02:05:24.106Z,99.90
2022-08-10T02:07:51.451Z,99.90
2022-08-10T02:10:19.685Z,99.90
2022-08-10T02:12:48.336Z,99.90
2022-08-10T02:15:20.548Z,99.90
2022-08-10T02:17:59.259Z,99.90
2022-08-10T02:20:42.219Z,99.90
2022-08-10T02:23:20.890Z,99.90
2022-08-10T02:25:49.892Z,99.90
2022-08-10T02:28:27.083Z,99.90
2022-08-10T02:31:03.525Z,99.90
2022-08-10T02:33:36.924Z,99.90
2022-08-10T02:36:07.735Z,99.90
2022-08-10T02:39:00.943Z,99.90
2022-08-10T02:45:13.461Z,99.90
2022-08-10T02:45:29.077Z,99.60
2022-08-10T02:47:51.159Z,99.80
2022-08-10T02:50:39.969Z,99.90
2022-08-10T02:53:55.884Z,99.90
2022-08-10T02:56:20.271Z,99.90
2022-08-10T02:58:56.654Z,99.90
2022-08-10T03:01:30.599Z,99.90
2022-08-10T03:04:00.968Z,99.90
2022-08-10T03:06:34.760Z,99.90
2022-08-10T03:09:03.454Z,99.90
2022-08-10T03:12:37.935Z,99.90
2022-08-10T03:14:19.901Z,99.90
2022-08-10T03:16:47.391Z,99.90
2022-08-10T03:20:35.234Z,99.90
2022-08-10T03:22:03.951Z,99.80
2022-08-10T03:24:32.983Z,99.90
2022-08-10T03:27:00.356Z,99.90
2022-08-10T03:29:28.641Z,99.90
2022-08-10T03:31:56.364Z,99.90
2022-08-10T03:34:33.452Z,99.90
2022-08-10T03:37:00.732Z,99.90
2022-08-10T03:39:27.806Z,99.90
2022-08-10T03:41:58.284Z,99.90
2022-08-10T03:44:32.323Z,99.90
2022-08-10T03:47:01.049Z,99.90
2022-08-10T03:49:29.634Z,99.90
2022-08-10T03:51:57.849Z,99.90
2022-08-10T03:54:25.972Z,99.90
2022-08-10T03:56:52.820Z,99.90
2022-08-10T03:59:20.164Z,99.90
2022-08-10T04:02:44.992Z,99.90
2022-08-10T04:04:34.445Z,99.90
2022-08-10T04:07:02.854Z,99.90
2022-08-10T04:09:54.118Z,99.90
2022-08-10T04:12:21.206Z,99.90
2022-08-10T04:14:51.125Z,99.90
2022-08-10T04:18:02.830Z,99.90
2022-08-10T04:20:34.849Z,99.90
2022-08-10T04:23:06.426Z,99.90
2022-08-10T04:25:33.530Z,99.90
2022-08-10T04:28:00.810Z,99.90
2022-08-10T04:30:31.239Z,99.90
2022-08-10T04:33:00.007Z,99.90
2022-08-10T04:35:28.837Z,99.90
2022-08-10T04:37:57.049Z,99.90
2022-08-10T04:40:25.463Z,99.90
2022-08-10T04:42:55.769Z,99.90
2022-08-10T04:45:47.518Z,99.90
2022-08-10T04:48:40.181Z,99.90
2022-08-10T04:51:01.942Z,99.90
2022-08-10T04:53:29.028Z,99.90
2022-08-10T04:55:55.651Z,99.90
2022-08-10T04:58:22.271Z,99.90
2022-08-10T05:00:48.934Z,99.90
2022-08-10T05:03:15.573Z,99.90
2022-08-10T05:05:42.232Z,99.90
2022-08-10T05:08:08.856Z,99.90
2022-08-10T05:10:35.467Z,99.90
2022-08-10T05:13:02.146Z,99.90
2022-08-10T05:15:28.823Z,99.90
2022-08-10T05:18:08.844Z,99.90
2022-08-10T05:20:37.109Z,99.90
2022-08-10T05:23:03.851Z,99.90
2022-08-10T05:25:32.811Z,99.90
2022-08-10T05:28:06.446Z,99.90
2022-08-10T05:30:33.888Z,99.90
2022-08-10T05:33:05.049Z,99.90
2022-08-10T05:35:51.794Z,99.90
2022-08-10T05:38:22.794Z,99.90
2022-08-10T05:40:49.941Z,99.90
2022-08-10T05:43:19.379Z,99.90
2022-08-10T05:46:17.055Z,99.90
2022-08-10T05:48:41.733Z,99.90
2022-08-10T05:51:23.014Z,99.90
2022-08-10T05:54:02.656Z,99.70
2022-08-10T05:56:54.870Z,99.60
2022-08-10T06:00:32.955Z,99.60
2022-08-10T06:02:31.260Z,99.30
2022-08-10T06:05:14.303Z,99.40
2022-08-10T06:07:49.181Z,99.20
2022-08-10T06:10:30.982Z,99.10
2022-08-10T06:13:04.147Z,98.70
2022-08-10T06:15:50.910Z,98.50
2022-08-10T06:18:19.827Z,98.20
2022-08-10T06:20:47.278Z,97.90
2022-08-10T06:23:14.279Z,98.10
2022-08-10T06:26:10.502Z,98.60
2022-08-10T06:28:32.488Z,97.90
2022-08-10T06:31:01.498Z,97.90
2022-08-10T06:33:31.374Z,98.00
2022-08-10T06:35:59.118Z,98.10
2022-08-10T06:38:28.877Z,98.10
2022-08-10T06:41:02.252Z,98.00
2022-08-10T06:43:30.698Z,97.40
2022-08-10T06:46:08.828Z,96.90
2022-08-10T06:48:47.172Z,97.10
2022-08-10T06:51:20.373Z,97.00
2022-08-10T06:53:54.202Z,97.00
2022-08-10T06:56:37.757Z,97.00
2022-08-10T06:59:22.121Z,96.20
2022-08-10T07:01:58.257Z,96.10
2022-08-10T07:04:32.700Z,96.80
2022-08-10T07:07:04.089Z,96.10
2022-08-10T07:09:32.896Z,96.00
2022-08-10T07:12:07.816Z,96.30
2022-08-10T07:14:45.088Z,96.20
2022-08-10T07:17:15.387Z,96.10
2022-08-10T07:19:50.534Z,95.70
2022-08-10T07:23:27.060Z,95.70
2022-08-10T07:25:08.562Z,95.60
2022-08-10T07:27:39.100Z,95.20
2022-08-10T07:30:25.983Z,94.60
2022-08-10T07:32:53.216Z,94.20
2022-08-10T07:35:22.842Z,94.30
2022-08-10T07:37:52.502Z,93.70
2022-08-10T07:40:21.635Z,94.20
2022-08-10T07:42:53.703Z,93.40
2022-08-10T07:45:20.762Z,93.30
2022-08-10T07:48:08.007Z,93.90
2022-08-10T07:50:38.695Z,92.50
2022-08-10T07:53:09.780Z,92.30
2022-08-10T07:56:08.169Z,93.10
2022-08-10T07:58:33.967Z,92.20
2022-08-10T08:01:01.449Z,92.90
2022-08-10T08:03:30.711Z,91.30
2022-08-10T08:06:05.355Z,91.30
2022-08-10T08:08:38.684Z,91.70
2022-08-10T08:11:06.200Z,91.90
2022-08-10T08:13:35.281Z,91.80
2022-08-10T08:16:19.360Z,91.20
2022-08-10T08:19:16.348Z,91.60
2022-08-10T08:24:08.090Z,90.70
2022-08-10T08:24:31.005Z,90.30
2022-08-10T08:27:00.650Z,90.20
2022-08-10T08:29:28.353Z,90.30
2022-08-10T08:32:02.723Z,90.40
2022-08-10T08:34:32.420Z,90.20
2022-08-10T08:37:00.825Z,88.50
2022-08-10T08:39:27.958Z,87.80
2022-08-10T08:42:16.515Z,90.00
2022-08-10T08:45:14.587Z,89.10
2022-08-10T08:48:04.466Z,87.80
2022-08-10T08:50:47.233Z,87.00
2022-08-10T08:53:23.669Z,84.90
2022-08-10T08:56:17.468Z,84.80
2022-08-10T08:59:05.664Z,83.90
2022-08-10T09:02:28.950Z,83.20
2022-08-10T09:05:01.298Z,82.70
2022-08-10T09:07:59.923Z,81.90
2022-08-10T09:10:58.774Z,81.40
2022-08-10T09:13:39.530Z,80.00
2022-08-10T09:16:17.806Z,81.70
2022-08-10T09:19:35.633Z,78.50
2022-08-10T09:22:17.421Z,78.00
2022-08-10T09:25:08.847Z,77.90
2022-08-10T09:27:56.423Z,76.00
2022-08-10T09:30:32.196Z,74.80
2022-08-10T09:36:24.066Z,75.10
2022-08-10T09:36:32.369Z,76.90
2022-08-10T09:39:03.105Z,75.10
2022-08-10T09:41:37.616Z,74.50
2022-08-10T09:44:23.004Z,75.90
2022-08-10T09:47:13.474Z,75.70
2022-08-10T09:50:04.225Z,74.50
2022-08-10T09:52:58.911Z,73.90
2022-08-10T09:56:17.916Z,71.00
2022-08-10T09:59:29.362Z,68.90
2022-08-10T10:02:04.128Z,69.30
2022-08-10T10:04:59.030Z,70.90
2022-08-10T10:07:29.577Z,70.00
2022-08-10T10:10:26.638Z,69.90
2022-08-10T10:13:03.295Z,70.40
2022-08-10T10:16:08.945Z,70.70
2022-08-10T10:18:54.604Z,69.40
2022-08-10T10:21:55.321Z,67.60
2022-08-10T10:24:56.843Z,66.30
2022-08-10T10:27:48.981Z,67.00
2022-08-10T10:30:18.855Z,67.30
2022-08-10T10:33:13.088Z,65.50
2022-08-10T10:36:07.935Z,65.90
2022-08-10T10:38:37.641Z,64.80
2022-08-10T10:41:21.602Z,64.50
2022-08-10T10:44:07.617Z,64.20
2022-08-10T10:46:55.810Z,62.60
2022-08-10T10:50:09.924Z,63.90
2022-08-10T10:53:02.411Z,64.10
2022-08-10T10:56:13.307Z,65.80
2022-08-10T10:58:38.823Z,63.60
2022-08-10T11:01:44.284Z,65.90
2022-08-10T11:04:26.655Z,64.60
2022-08-10T11:07:11.359Z,62.70
2022-08-10T11:10:08.982Z,63.10
2022-08-10T11:13:03.915Z,63.60
2022-08-10T11:16:08.994Z,63.60
2022-08-10T11:18:55.404Z,62.60
2022-08-10T11:21:50.049Z,60.20
2022-08-10T11:24:49.103Z,61.70
2022-08-10T11:27:21.791Z,59.90
2022-08-10T11:29:58.041Z,60.10
2022-08-10T11:32:29.629Z,61.90
2022-08-10T11:35:22.446Z,59.40
2022-08-10T11:38:32.817Z,58.40
2022-08-10T11:42:06.720Z,57.70
2022-08-10T11:44:29.719Z,58.00
2022-08-10T11:47:04.708Z,56.80
2022-08-10T11:49:37.607Z,57.20
2022-08-10T11:52:09.053Z,57.20
2022-08-10T11:54:53.634Z,57.60
2022-08-10T11:57:24.102Z,57.60
2022-08-10T12:00:11.607Z,56.50
2022-08-10T12:02:54.140Z,55.70
2022-08-10T12:05:54.528Z,55.90
2022-08-10T12:10:06.816Z,54.50
2022-08-10T12:11:05.734Z,56.70
2022-08-10T12:13:58.496Z,56.10
2022-08-10T12:16:34.830Z,57.30
2022-08-10T12:19:02.817Z,56.80
2022-08-10T12:21:52.682Z,57.30
2022-08-10T12:24:39.851Z,55.30
2022-08-10T12:27:13.042Z,55.40
2022-08-10T12:29:52.156Z,55.90
2022-08-10T12:32:32.211Z,56.10
2022-08-10T12:35:12.197Z,54.90
2022-08-10T12:37:59.908Z,55.80
2022-08-10T12:40:36.805Z,55.90
2022-08-10T12:44:05.644Z,55.40
2022-08-10T12:46:28.403Z,54.00
2022-08-10T12:49:08.993Z,52.80
2022-08-10T12:51:40.059Z,52.50
2022-08-10T12:54:32.241Z,53.30
2022-08-10T12:57:09.915Z,53.70
2022-08-10T12:59:42.916Z,52.00
2022-08-10T13:02:14.112Z,51.90
2022-08-10T13:04:43.091Z,51.80
2022-08-10T13:07:10.961Z,49.30
2022-08-10T13:10:08.491Z,50.70
2022-08-10T13:12:40.469Z,50.10
2022-08-10T13:15:45.971Z,51.60
2022-08-10T13:18:18.400Z,50.30
2022-08-10T13:20:51.530Z,50.60
2022-08-10T13:23:23.508Z,50.80
2022-08-10T13:25:52.215Z,50.70
2022-08-10T13:28:35.768Z,50.00
2022-08-10T13:31:16.878Z,47.70
2022-08-10T13:34:40.410Z,49.20
2022-08-10T13:36:48.953Z,48.90
2022-08-10T13:39:22.578Z,49.00
2022-08-10T13:41:50.930Z,48.80
2022-08-10T13:44:32.707Z,49.70
2022-08-10T13:47:00.167Z,48.40
2022-08-10T13:49:30.366Z,48.60
2022-08-10T13:51:58.518Z,49.10
2022-08-10T13:54:35.497Z,49.30
2022-08-10T13:57:02.940Z,48.00
2022-08-10T14:00:35.198Z,48.90
2022-08-10T14:02:25.932Z,49.90
2022-08-10T14:04:55.855Z,49.40
2022-08-10T14:07:24.083Z,49.60
2022-08-10T14:09:53.129Z,47.40
2022-08-10T14:12:31.867Z,49.10
2022-08-10T14:15:02.870Z,49.30
2022-08-10T14:17:31.582Z,49.70
2022-08-10T14:19:59.588Z,49.70
2022-08-10T14:22:33.858Z,50.10
2022-08-10T14:25:10.317Z,50.00
2022-08-10T14:28:03.700Z,50.20
2022-08-10T14:30:32.153Z,50.00
2022-08-10T14:33:00.636Z,49.80
2022-08-10T14:36:21.464Z,49.20
2022-08-10T14:38:20.830Z,48.20
2022-08-10T14:40:52.198Z,48.00
2022-08-10T14:43:28.607Z,47.90
2022-08-10T14:46:05.657Z,48.90
2022-08-10T14:48:40.666Z,49.30
2022-08-10T14:51:09.059Z,50.20
2022-08-10T14:53:38.181Z,50.30
2022-08-10T14:56:09.217Z,50.70
2022-08-10T14:59:05.717Z,50.70
2022-08-10T15:02:00.064Z,50.70
2022-08-10T15:04:22.129Z,50.70
2022-08-10T15:06:55.736Z,49.60
2022-08-10T15:09:25.549Z,50.00
2022-08-10T15:12:13.533Z,50.80
2022-08-10T15:14:46.214Z,51.10
2022-08-10T15:17:35.128Z,51.60
2022-08-10T15:20:15.342Z,52.40
2022-08-10T15:22:47.292Z,51.60
2022-08-10T15:25:24.393Z,52.60
2022-08-10T15:28:16.744Z,52.70
2022-08-10T15:30:46.769Z,52.70
2022-08-10T15:33:21.638Z,52.00
2022-08-10T15:36:07.882Z,51.30
2022-08-10T15:38:38.976Z,50.30
2022-08-10T15:41:11.243Z,50.20
2022-08-10T15:43:44.371Z,50.20
2022-08-10T15:46:22.675Z,50.00
2022-08-10T15:49:01.839Z,49.90
2022-08-10T15:51:53.409Z,50.60
2022-08-10T15:54:33.793Z,50.20
2022-08-10T15:57:10.934Z,50.70
2022-08-10T15:59:44.815Z,50.20
2022-08-10T16:02:17.727Z,50.10
2022-08-10T16:04:56.927Z,50.10
2022-08-10T16:07:45.873Z,49.10
2022-08-10T16:10:25.679Z,48.00
2022-08-10T16:13:50.782Z,48.70
2022-08-10T16:15:59.761Z,48.90
2022-08-10T16:18:32.063Z,49.00
2022-08-10T16:21:32.784Z,49.40
2022-08-10T16:24:15.657Z,49.50
2022-08-10T16:26:51.848Z,50.50
2022-08-10T16:29:22.770Z,50.90
2022-08-10T16:31:58.046Z,51.90
2022-08-10T16:34:27.024Z,51.70
2022-08-10T16:36:59.923Z,52.30
2022-08-10T16:39:59.955Z,52.80
2022-08-10T16:42:23.299Z,52.90
2022-08-10T16:45:04.969Z,52.70
2022-08-10T16:47:35.885Z,52.90
2022-08-10T16:50:06.975Z,53.60
2022-08-10T16:52:34.703Z,53.30
2022-08-10T16:55:23.368Z,52.90
2022-08-10T16:57:54.439Z,53.60
2022-08-10T17:00:23.434Z,52.80
2022-08-10T17:02:55.411Z,52.80
2022-08-10T17:06:03.561Z,53.00
2022-08-10T17:08:17.364Z,53.60
2022-08-10T17:10:44.495Z,52.90
2022-08-10T17:13:13.929Z,53.00
2022-08-10T17:15:49.903Z,53.20
2022-08-10T17:18:18.301Z,53.70
2022-08-10T17:20:45.290Z,53.80
2022-08-10T17:23:13.699Z,53.80
2022-08-10T17:25:48.235Z,53.50
2022-08-10T17:28:33.290Z,53.90
2022-08-10T17:31:23.915Z,54.60
2022-08-10T17:34:12.184Z,54.70
2022-08-10T17:36:40.537Z,55.10
2022-08-10T17:39:11.657Z,55.40
2022-08-10T17:41:40.142Z,55.50
2022-08-10T17:44:09.180Z,55.40
2022-08-10T17:46:40.399Z,55.00
2022-08-10T17:49:09.699Z,55.90
2022-08-10T17:51:39.206Z,56.00
2022-08-10T17:54:09.029Z,56.60
2022-08-10T17:56:38.047Z,56.20
2022-08-10T17:59:16.884Z,56.20
2022-08-10T18:02:01.659Z,56.50
2022-08-10T18:04:40.880Z,56.60
2022-08-10T18:07:09.895Z,55.70
2022-08-10T18:09:44.333Z,56.10
2022-08-10T18:12:18.224Z,56.40
2022-08-10T18:14:49.356Z,56.70
2022-08-10T18:17:22.940Z,56.50
2022-08-10T18:19:57.806Z,57.00
2022-08-10T18:22:25.640Z,57.50
2022-08-10T18:24:53.926Z,57.40
2022-08-10T18:27:21.139Z,57.90
2022-08-10T18:29:53.329Z,58.20
2022-08-10T18:32:23.196Z,58.40
2022-08-10T18:34:58.268Z,58.70
2022-08-10T18:37:26.836Z,59.00
2022-08-10T18:40:01.789Z,59.10
2022-08-10T18:42:45.808Z,59.30
2022-08-10T18:45:27.890Z,59.50
2022-08-10T18:48:07.638Z,60.00
2022-08-10T18:50:36.888Z,60.10
2022-08-10T18:53:17.463Z,60.50
2022-08-10T18:56:09.530Z,60.50
2022-08-10T18:59:06.000Z,60.90
2022-08-10T19:02:07.572Z,60.90
2022-08-10T19:05:31.478Z,61.80
2022-08-10T19:08:30.450Z,61.60
2022-08-10T19:11:28.101Z,62.20
2022-08-10T19:14:07.939Z,62.30
2022-08-10T19:17:02.227Z,62.80
2022-08-10T19:20:08.330Z,63.60
2022-08-10T19:22:51.513Z,64.40
2022-08-10T19:26:41.771Z,64.60
2022-08-10T19:30:11.713Z,65.60
2022-08-10T19:32:44.206Z,66.80
2022-08-10T19:35:29.410Z,67.20
2022-08-10T19:38:33.300Z,66.90
2022-08-10T19:41:14.048Z,67.50
2022-08-10T19:44:24.988Z,68.40
2022-08-10T19:47:05.511Z,68.80
2022-08-10T19:49:51.565Z,68.80
2022-08-10T19:52:33.882Z,69.40
2022-08-10T19:55:17.636Z,69.70
2022-08-10T19:57:57.080Z,69.80
2022-08-10T20:00:30.408Z,68.70
2022-08-10T20:03:07.967Z,68.80
2022-08-10T20:06:13.045Z,67.90
2022-08-10T20:09:12.264Z,68.60
2022-08-10T20:12:10.268Z,69.30
2022-08-10T20:14:45.760Z,68.80
2022-08-10T20:17:20.652Z,69.10
2022-08-10T20:20:04.990Z,69.20
2022-08-10T20:22:39.179Z,69.90
2022-08-10T20:25:31.211Z,69.60
2022-08-10T20:28:11.490Z,70.40
2022-08-10T20:30:44.496Z,70.80
2022-08-10T20:33:23.558Z,71.20
2022-08-10T20:36:08.208Z,70.70
2022-08-10T20:38:57.273Z,71.30
2022-08-10T20:42:00.643Z,71.10
2022-08-10T20:44:55.268Z,70.50
2022-08-10T20:47:53.849Z,71.10
2022-08-10T20:50:34.897Z,70.70
2022-08-10T20:53:08.304Z,70.40
2022-08-10T20:55:54.175Z,70.50
2022-08-10T20:58:24.092Z,70.70
2022-08-10T21:01:13.085Z,70.60
2022-08-10T21:03:59.838Z,70.80
2022-08-10T21:07:01.141Z,70.80
2022-08-10T21:09:55.698Z,71.00
2022-08-10T21:13:07.926Z,71.30
2022-08-10T21:15:57.662Z,71.50
2022-08-10T21:18:52.015Z,72.10
2022-08-10T21:21:56.996Z,71.90
2022-08-10T21:24:31.007Z,72.00
2022-08-10T21:27:15.243Z,72.10
2022-08-10T21:29:55.876Z,72.30
2022-08-10T21:32:32.492Z,72.40
2022-08-10T21:35:20.409Z,72.60
2022-08-10T21:38:27.474Z,72.70
2022-08-10T21:41:18.565Z,73.30
2022-08-10T21:44:29.970Z,73.70
2022-08-10T21:47:30.943Z,73.90
2022-08-10T21:50:07.108Z,74.20
2022-08-10T21:52:53.522Z,74.40
2022-08-10T21:55:57.211Z,74.40
2022-08-10T21:58:35.730Z,74.90
2022-08-10T22:01:09.121Z,75.00
2022-08-10T22:03:41.147Z,75.00
2022-08-10T22:06:10.262Z,75.10
2022-08-10T22:08:48.088Z,75.20
2022-08-10T22:11:20.100Z,75.60
2022-08-10T22:13:49.614Z,76.00
2022-08-10T22:16:41.457Z,76.00
2022-08-10T22:19:14.751Z,76.30
2022-08-10T22:22:02.159Z,76.50
2022-08-10T22:24:56.528Z,76.30
2022-08-10T22:27:56.511Z,76.60
2022-08-10T22:31:14.977Z,76.80
2022-08-10T22:34:08.792Z,76.70
2022-08-10T22:36:58.848Z,76.60
2022-08-10T22:40:11.266Z,77.20
2022-08-10T22:42:59.316Z,77.40
2022-08-10T22:45:28.207Z,77.50
2022-08-10T22:48:05.831Z,77.50
2022-08-10T22:50:33.499Z,78.90
2022-08-10T22:53:05.747Z,78.70
2022-08-10T22:55:40.703Z,78.00
2022-08-10T22:58:07.466Z,77.90
2022-08-10T23:00:34.772Z,78.50
2022-08-10T23:03:16.100Z,78.80
2022-08-10T23:05:56.027Z,79.00
2022-08-10T23:08:30.522Z,79.50
2022-08-10T23:11:04.256Z,79.50
2022-08-10T23:13:40.060Z,79.80
2022-08-10T23:16:22.193Z,80.30
2022-08-10T23:18:55.526Z,79.70
2022-08-10T23:22:02.832Z,80.10
2022-08-10T23:24:29.299Z,80.50
2022-08-10T23:26:58.041Z,80.70
2022-08-10T23:29:39.286Z,80.70
2022-08-10T23:32:30.687Z,80.80
2022-08-10T23:36:31.445Z,80.70
2022-08-10T23:37:46.907Z,81.40
2022-08-10T23:40:16.083Z,81.70
2022-08-10T23:42:51.506Z,82.50
2022-08-10T23:45:25.366Z,82.40
2022-08-10T23:47:58.065Z,82.60
2022-08-10T23:50:27.871Z,82.30
2022-08-10T23:53:03.875Z,82.40
2022-08-10T23:55:49.422Z,82.50
2022-08-10T23:58:29.110Z,83.20
